createdAt,value
2019-04-05T00:00:39.179Z,99798.45
2019-04-05T00:02:14.285Z,99796.69
2019-04-05T00:03:48.986Z,99791.05
2019-04-05T00:05:23.689Z,99800.11
2019-04-05T00:06:58.384Z,99802.25
2019-04-05T00:08:33.044Z,99800.92
2019-04-05T00:10:08.460Z,99798.00
2019-04-05T00:11:43.125Z,99797.23
2019-04-05T00:13:17.765Z,99801.80
2019-04-05T00:14:52.462Z,99801.16
2019-04-05T00:16:27.258Z,99804.91
2019-04-05T00:18:01.893Z,99801.53
2019-04-05T00:19:36.550Z,99797.77
2019-04-05T00:21:11.299Z,99793.73
2019-04-05T00:22:45.963Z,99799.07
2019-04-05T00:24:20.644Z,99798.54
2019-04-05T00:25:55.299Z,99797.50
2019-04-05T00:27:29.973Z,99798.06
2019-04-05T00:29:05.722Z,99793.28
2019-04-05T00:30:40.398Z,99800.12
2019-04-05T00:32:15.082Z,99801.80
2019-04-05T00:33:49.709Z,99806.84
2019-04-05T00:35:24.378Z,99811.59
2019-04-05T00:36:59.024Z,99814.53
2019-04-05T00:38:33.680Z,99817.13
2019-04-05T00:40:09.715Z,99809.39
2019-04-05T00:41:44.376Z,99808.93
2019-04-05T00:43:19.017Z,99808.59
2019-04-05T00:44:53.752Z,99810.63
2019-04-05T00:46:28.446Z,99804.61
2019-04-05T00:48:03.194Z,99798.45
2019-04-05T00:49:38.928Z,99803.81
2019-04-05T00:51:14.829Z,99802.52
2019-04-05T00:52:49.554Z,99795.09
2019-04-05T00:54:24.314Z,99800.98
2019-04-05T00:55:59.037Z,99796.97
2019-04-05T00:57:33.725Z,99796.42
2019-04-05T00:59:08.368Z,99801.19
2019-04-05T01:00:43.010Z,99798.06
2019-04-05T01:02:17.784Z,99802.57
2019-04-05T01:03:52.400Z,99804.16
2019-04-05T01:05:27.138Z,99805.25
2019-04-05T01:07:01.933Z,99811.89
2019-04-05T01:08:36.664Z,99826.68
2019-04-05T01:10:11.892Z,99827.52
2019-04-05T01:11:46.617Z,99824.05
2019-04-05T01:13:22.219Z,99822.39
2019-04-05T01:14:57.045Z,99816.09
2019-04-05T01:16:31.799Z,99812.12
2019-04-05T01:18:06.569Z,99810.42
2019-04-05T01:19:41.883Z,99808.30
2019-04-05T01:21:19.966Z,99801.98
2019-04-05T01:22:55.197Z,99800.95
2019-04-05T01:24:30.045Z,99799.07
2019-04-05T01:26:05.391Z,99801.98
2019-04-05T01:27:41.240Z,99806.17
2019-04-05T01:46:19.174Z,99839.17
2019-04-05T01:47:53.912Z,99848.48
2019-04-05T01:49:28.551Z,99850.86
2019-04-05T01:51:03.234Z,99849.00
2019-04-05T01:52:38.048Z,99851.05
2019-04-05T01:54:12.774Z,99859.08
2019-04-05T01:55:47.443Z,99847.13
2019-04-05T01:57:22.131Z,99853.78
2019-04-05T01:58:56.811Z,99850.88
2019-04-05T02:00:31.502Z,99847.91
2019-04-05T02:02:06.362Z,99852.12
2019-04-05T02:03:41.054Z,99859.33
2019-04-05T02:05:16.137Z,99859.06
2019-04-05T02:06:50.848Z,99860.85
2019-04-05T02:08:25.822Z,99861.75
2019-04-05T02:10:00.538Z,99857.14
2019-04-05T02:11:36.354Z,99866.47
2019-04-05T02:13:11.096Z,99870.73
2019-04-05T02:14:46.883Z,99875.75
2019-04-05T02:16:21.669Z,99877.34
2019-04-05T02:17:56.933Z,99878.38
2019-04-05T02:19:31.658Z,99881.55
2019-04-05T02:21:07.372Z,99884.46
2019-04-05T02:22:42.195Z,99881.38
2019-04-05T02:24:16.896Z,99880.81
2019-04-05T02:25:51.609Z,99876.58
2019-04-05T02:27:26.235Z,99879.80
2019-04-05T02:29:00.953Z,99886.11
2019-04-05T02:30:35.821Z,99882.97
2019-04-05T02:32:10.549Z,99879.97
2019-04-05T02:33:45.222Z,99880.83
2019-04-05T02:35:19.869Z,99885.05
2019-04-05T02:36:54.510Z,99886.66
2019-04-05T02:38:29.220Z,99885.07
2019-04-05T02:40:04.089Z,99885.52
2019-04-05T02:41:39.703Z,99881.03
2019-04-05T02:43:15.906Z,99874.75
2019-04-05T02:44:51.653Z,99873.39
2019-04-05T02:46:26.991Z,99875.50
2019-04-05T02:48:04.622Z,99879.75
2019-04-05T02:49:39.657Z,99872.64
2019-04-05T02:51:14.969Z,99876.08
2019-04-05T02:52:50.681Z,99878.99
2019-04-05T02:54:25.681Z,99874.48
2019-04-05T02:56:03.048Z,99873.17
2019-04-05T02:57:36.942Z,99871.80
2019-04-05T02:59:12.495Z,99872.89
2019-04-05T03:00:47.506Z,99872.89
2019-04-05T03:02:22.328Z,99872.33
2019-04-05T03:03:57.053Z,99874.16
2019-04-05T03:05:32.504Z,99868.92
2019-04-05T03:07:07.445Z,99867.57
2019-04-05T03:08:43.348Z,99868.79
2019-04-05T03:10:45.714Z,99866.98
2019-04-05T03:12:20.592Z,99871.23
2019-04-05T03:13:57.357Z,99872.34
2019-04-05T03:15:32.076Z,99869.89
2019-04-05T03:17:07.404Z,99867.86
2019-04-05T03:18:45.235Z,99864.16
2019-04-05T03:20:20.103Z,99872.66
2019-04-05T03:21:59.957Z,99872.58
2019-04-05T03:23:36.740Z,99869.16
2019-04-05T03:25:11.771Z,99863.11
2019-04-05T03:26:50.825Z,99864.41
2019-04-05T03:28:26.037Z,99866.79
2019-04-05T03:30:00.983Z,99865.20
2019-04-05T03:31:35.728Z,99861.72
2019-04-05T03:33:10.351Z,99866.55
2019-04-05T03:34:45.091Z,99871.58
2019-04-05T03:36:20.094Z,99869.19
2019-04-05T03:37:54.830Z,99872.66
2019-04-05T03:39:29.481Z,99871.35
2019-04-05T03:41:05.515Z,99876.42
2019-04-05T03:42:40.290Z,99866.77
2019-04-05T03:44:14.965Z,99870.45
2019-04-05T03:45:49.983Z,99862.61
2019-04-05T03:47:24.833Z,99865.23
2019-04-05T03:48:59.539Z,99868.72
2019-04-05T03:50:34.238Z,99866.25
2019-04-05T03:52:08.975Z,99867.88
2019-04-05T03:53:43.694Z,99868.16
2019-04-05T03:55:18.526Z,99867.37
2019-04-05T03:56:53.458Z,99865.56
2019-04-05T03:58:28.076Z,99867.66
2019-04-05T04:00:02.826Z,99870.52
2019-04-05T04:01:38.282Z,99871.13
2019-04-05T04:03:13.182Z,99867.66
2019-04-05T04:04:47.843Z,99865.75
2019-04-05T04:06:22.625Z,99870.23
2019-04-05T04:07:57.404Z,99866.34
2019-04-05T04:09:32.209Z,99872.67
2019-04-05T04:11:07.838Z,99870.85
2019-04-05T04:12:42.576Z,99869.76
2019-04-05T04:14:17.298Z,99871.05
2019-04-05T04:15:53.227Z,99876.43
2019-04-05T04:17:27.848Z,99884.82
2019-04-05T04:19:02.846Z,99884.36
2019-04-05T04:20:40.823Z,99889.91
2019-04-05T04:22:22.999Z,99883.86
2019-04-05T04:23:57.696Z,99881.22
2019-04-05T04:25:32.545Z,99881.20
2019-04-05T04:27:07.287Z,99888.08
2019-04-05T04:28:44.950Z,99870.87
2019-04-05T04:30:19.680Z,99880.67
2019-04-05T04:31:54.620Z,99870.36
2019-04-05T04:33:29.535Z,99881.20
2019-04-05T04:35:04.939Z,99880.44
2019-04-05T04:36:39.625Z,99879.87
2019-04-05T04:38:14.464Z,99883.86
2019-04-05T04:39:50.746Z,99885.95
2019-04-05T04:41:25.523Z,99888.13
2019-04-05T04:43:01.325Z,99890.76
2019-04-05T04:44:37.762Z,99896.00
2019-04-05T04:46:13.104Z,99900.55
2019-04-05T04:47:47.923Z,99901.33
2019-04-05T04:49:22.852Z,99907.11
2019-04-05T04:50:57.743Z,99908.16
2019-04-05T04:52:33.045Z,99911.91
2019-04-05T04:54:07.796Z,99914.84
2019-04-05T04:55:42.719Z,99920.39
2019-04-05T04:57:17.639Z,99920.91
2019-04-05T04:58:52.300Z,99922.22
2019-04-05T05:00:27.544Z,99932.59
2019-04-05T05:02:02.254Z,99937.91
2019-04-05T05:03:37.063Z,99939.47
2019-04-05T05:05:12.602Z,99942.41
2019-04-05T05:06:47.413Z,99939.23
2019-04-05T05:08:22.149Z,99933.39
2019-04-05T05:09:57.084Z,99937.61
2019-04-05T05:11:32.025Z,99939.73
2019-04-05T05:13:06.830Z,99942.39
2019-04-05T05:14:42.127Z,99944.53
2019-04-05T05:16:17.232Z,99942.14
2019-04-05T05:17:58.461Z,99942.94
2019-04-05T05:19:28.756Z,99943.73
2019-04-05T05:21:03.419Z,99941.89
2019-04-05T05:22:38.370Z,99946.33
2019-04-05T05:24:13.207Z,99950.64
2019-04-05T05:25:47.922Z,99948.47
2019-04-05T05:27:22.631Z,99949.80
2019-04-05T05:28:57.390Z,99953.25
2019-04-05T05:30:32.075Z,99945.86
2019-04-05T05:32:09.569Z,99955.89
2019-04-05T05:33:43.228Z,99956.44
2019-04-05T05:35:17.894Z,99954.07
2019-04-05T05:36:52.743Z,99964.38
2019-04-05T05:38:27.576Z,99959.91
2019-04-05T05:40:02.363Z,99965.42
2019-04-05T05:41:37.107Z,99972.61
2019-04-05T05:43:11.862Z,99969.14
2019-04-05T05:44:46.578Z,99972.02
2019-04-05T05:46:21.241Z,99974.96
2019-04-05T05:47:55.964Z,99973.13
2019-04-05T05:49:30.677Z,99969.94
2019-04-05T05:51:05.398Z,99973.12
2019-04-05T05:52:40.226Z,99970.70
2019-04-05T05:54:14.957Z,99969.17
2019-04-05T05:55:49.771Z,99969.94
2019-04-05T05:57:24.497Z,99972.33
2019-04-05T05:58:59.645Z,99967.85
2019-04-05T06:00:35.271Z,99969.38
2019-04-05T06:02:09.927Z,99966.20
2019-04-05T06:03:44.575Z,99963.03
2019-04-05T06:05:19.453Z,99969.39
2019-04-05T06:06:54.171Z,99967.27
2019-04-05T06:08:29.988Z,99970.20
2019-04-05T06:10:05.349Z,99975.50
2019-04-05T06:11:40.019Z,99971.52
2019-04-05T06:13:14.710Z,99967.24
2019-04-05T06:14:49.460Z,99970.98
2019-04-05T06:16:24.133Z,99970.42
2019-04-05T06:18:04.514Z,99972.83
2019-04-05T06:19:35.446Z,99972.33
2019-04-05T06:21:10.104Z,99966.22
2019-04-05T06:22:47.503Z,99974.96
2019-04-05T06:24:21.165Z,99968.54
2019-04-05T06:25:55.813Z,99970.96
2019-04-05T06:27:30.458Z,99963.73
2019-04-05T06:29:05.185Z,99960.45
2019-04-05T06:30:39.856Z,99962.16
2019-04-05T06:32:14.518Z,99966.15
2019-04-05T06:33:49.165Z,99966.97
2019-04-05T06:35:23.888Z,99976.54
2019-04-05T06:36:58.534Z,99972.04
2019-04-05T06:38:33.156Z,99978.44
2019-04-05T06:40:07.895Z,99978.95
2019-04-05T06:41:42.615Z,99981.56
2019-04-05T06:43:17.334Z,99977.05
2019-04-05T06:44:52.055Z,99977.86
2019-04-05T06:46:26.700Z,99974.38
2019-04-05T06:48:01.338Z,99980.48
2019-04-05T06:49:36.963Z,99976.75
2019-04-05T06:51:11.632Z,99977.83
2019-04-05T06:52:47.280Z,99985.22
2019-04-05T06:54:21.935Z,99983.16
2019-04-05T06:55:59.579Z,99978.44
2019-04-05T06:57:32.917Z,99979.45
2019-04-05T06:59:07.557Z,99975.97
2019-04-05T07:00:56.105Z,99982.06
2019-04-05T07:02:18.772Z,99985.82
2019-04-05T07:03:55.225Z,99979.38
2019-04-05T07:05:30.102Z,99980.48
2019-04-05T07:07:04.864Z,99987.41
2019-04-05T07:08:39.537Z,99991.12
2019-04-05T07:10:14.311Z,99991.61
2019-04-05T07:11:49.109Z,99991.94
2019-04-05T07:13:23.784Z,99992.13
2019-04-05T07:14:58.424Z,99996.19
2019-04-05T07:16:33.487Z,99992.73
2019-04-05T07:18:08.211Z,99995.07
2019-04-05T07:19:42.864Z,99999.30
2019-04-05T07:21:20.349Z,99997.98
2019-04-05T07:22:54.989Z,99996.62
2019-04-05T07:24:29.661Z,100007.53
2019-04-05T07:26:04.339Z,100006.74
2019-04-05T07:27:39.023Z,100000.92
2019-04-05T07:29:13.664Z,99998.25
2019-04-05T07:30:48.311Z,100008.88
2019-04-05T07:32:23.001Z,100007.82
2019-04-05T07:33:57.655Z,100005.61
2019-04-05T07:35:33.963Z,100008.83
2019-04-05T07:37:08.892Z,100005.32
2019-04-05T07:38:43.600Z,100004.33
2019-04-05T07:40:19.179Z,99997.16
2019-04-05T07:41:53.831Z,99995.82
2019-04-05T07:43:28.493Z,100011.77
2019-04-05T07:45:03.294Z,100014.16
2019-04-05T07:46:39.008Z,100015.23
2019-04-05T07:48:13.642Z,100007.48
2019-04-05T07:49:48.296Z,100008.49
2019-04-05T07:51:23.012Z,100012.20
2019-04-05T07:52:57.744Z,100008.49
2019-04-05T07:54:32.453Z,100006.59
2019-04-05T07:56:07.104Z,100002.39
2019-04-05T07:57:42.790Z,100007.41
2019-04-05T07:59:17.446Z,100012.19
2019-04-05T08:00:53.732Z,100013.91
2019-04-05T08:02:28.457Z,100015.42
2019-04-05T08:04:03.194Z,100011.94
2019-04-05T08:05:38.186Z,100014.30
2019-04-05T08:07:13.752Z,100019.43
2019-04-05T08:09:09.299Z,100009.56
2019-04-05T08:10:44.386Z,100010.88
2019-04-05T08:12:19.401Z,100005.02
2019-04-05T08:13:55.481Z,100004.72
2019-04-05T08:15:30.402Z,100006.91
2019-04-05T08:17:05.354Z,100007.98
2019-04-05T08:18:40.026Z,100010.88
2019-04-05T08:20:14.759Z,100015.16
2019-04-05T08:21:49.448Z,100010.63
2019-04-05T08:23:24.101Z,100008.50
2019-04-05T08:24:58.822Z,100009.80
2019-04-05T08:26:33.773Z,100007.96
2019-04-05T08:28:08.427Z,100008.78
2019-04-05T08:29:43.119Z,100010.62
2019-04-05T08:31:17.781Z,100014.51
2019-04-05T08:32:52.510Z,100006.56
2019-04-05T08:34:27.146Z,100007.38
2019-04-05T08:36:01.804Z,100006.34
2019-04-05T08:37:36.527Z,100003.37
2019-04-05T08:39:11.258Z,100002.84
2019-04-05T08:40:46.000Z,100011.41
2019-04-05T08:42:20.697Z,100009.22
2019-04-05T08:43:55.371Z,100010.83
2019-04-05T08:45:30.098Z,100013.66
2019-04-05T08:47:04.913Z,100018.16
2019-04-05T08:48:39.564Z,100013.97
2019-04-05T08:50:14.475Z,100021.67
2019-04-05T08:51:49.188Z,100029.19
2019-04-05T08:53:23.821Z,100030.16
2019-04-05T08:54:58.482Z,100033.87
2019-04-05T08:56:33.166Z,100024.60
2019-04-05T08:58:07.817Z,100032.06
2019-04-05T08:59:42.485Z,100028.55
2019-04-05T09:01:17.309Z,100024.52
2019-04-05T09:02:52.228Z,100027.45
2019-04-05T09:04:26.918Z,100023.33
2019-04-05T09:06:01.680Z,100029.52
2019-04-05T09:07:36.339Z,100027.16
2019-04-05T09:09:10.989Z,100029.59
2019-04-05T09:10:45.665Z,100031.41
2019-04-05T09:12:20.311Z,100035.92
2019-04-05T09:13:55.024Z,100031.95
2019-04-05T09:15:29.662Z,100035.09
2019-04-05T09:17:04.401Z,100040.38
2019-04-05T09:18:39.032Z,100041.77
2019-04-05T09:20:13.829Z,100033.58
2019-04-05T09:21:48.599Z,100036.14
2019-04-05T09:23:23.295Z,100032.80
2019-04-05T09:24:57.978Z,100036.91
2019-04-05T09:26:32.653Z,100034.30
2019-04-05T09:28:07.303Z,100033.24
2019-04-05T09:29:42.125Z,100029.31
2019-04-05T09:31:16.791Z,100034.83
2019-04-05T09:32:51.582Z,100031.34
2019-04-05T09:34:26.228Z,100029.97
2019-04-05T09:36:00.905Z,100026.88
2019-04-05T09:37:35.583Z,100026.02
2019-04-05T09:39:15.263Z,100025.12
2019-04-05T09:40:47.884Z,100023.06
2019-04-05T09:42:22.599Z,100021.40
2019-04-05T09:43:57.308Z,100025.87
2019-04-05T09:45:31.956Z,100025.74
2019-04-05T09:47:06.671Z,100023.75
2019-04-05T09:48:41.318Z,100024.67
2019-04-05T09:50:16.219Z,100020.51
2019-04-05T09:51:51.055Z,100022.80
2019-04-05T09:53:25.818Z,100024.88
2019-04-05T09:55:00.481Z,100031.78
2019-04-05T09:56:35.155Z,100028.19
2019-04-05T09:58:10.359Z,100035.75
2019-04-05T09:59:45.232Z,100036.38
2019-04-05T10:01:19.983Z,100032.66
2019-04-05T10:02:54.747Z,100032.48
2019-04-05T10:04:31.199Z,100032.29
2019-04-05T10:06:05.875Z,100033.39
2019-04-05T10:07:53.815Z,100035.55
2019-04-05T10:09:16.989Z,100035.55
2019-04-05T10:10:51.683Z,100038.33
2019-04-05T10:12:27.728Z,100038.39
2019-04-05T10:14:02.388Z,100033.91
2019-04-05T10:15:37.024Z,100032.74
2019-04-05T10:17:12.122Z,100038.36
2019-04-05T10:18:46.790Z,100033.33
2019-04-05T10:20:21.542Z,100033.33
2019-04-05T10:21:56.178Z,100040.37
2019-04-05T10:23:30.865Z,100046.68
2019-04-05T10:25:06.004Z,100048.85
2019-04-05T10:26:40.668Z,100043.22
2019-04-05T10:28:15.404Z,100048.72
2019-04-05T10:29:50.045Z,100047.62
2019-04-05T10:31:24.844Z,100042.30
2019-04-05T10:32:59.530Z,100038.43
2019-04-05T10:34:34.183Z,100042.47
2019-04-05T10:36:08.824Z,100042.95
2019-04-05T10:37:43.483Z,100042.95
2019-04-05T10:39:18.166Z,100040.59
2019-04-05T10:40:55.554Z,100040.66
2019-04-05T10:42:33.848Z,100044.67
2019-04-05T10:44:11.753Z,100042.83
2019-04-05T10:45:46.909Z,100044.48
2019-04-05T10:47:21.790Z,100031.83
2019-04-05T10:48:56.528Z,100041.35
2019-04-05T10:50:32.189Z,100040.06
2019-04-05T10:52:06.835Z,100046.67
2019-04-05T10:53:41.516Z,100046.58
2019-04-05T10:55:16.265Z,100045.35
2019-04-05T10:56:50.913Z,100039.73
2019-04-05T10:58:25.662Z,100037.72
2019-04-05T11:00:00.317Z,100044.23
2019-04-05T11:01:35.034Z,100044.23
2019-04-05T11:03:09.724Z,100048.84
2019-04-05T11:04:44.477Z,100049.20
2019-04-05T11:06:19.129Z,100053.55
2019-04-05T11:07:53.777Z,100057.81
2019-04-05T11:09:28.450Z,100050.72
2019-04-05T11:11:03.126Z,100059.01
2019-04-05T11:12:37.900Z,100057.59
2019-04-05T11:14:13.922Z,100061.89
2019-04-05T11:15:49.067Z,100063.39
2019-04-05T11:17:23.731Z,100066.20
2019-04-05T11:19:01.887Z,100067.75
2019-04-05T11:20:34.736Z,100065.31
2019-04-05T11:22:09.364Z,100064.28
2019-04-05T11:23:44.022Z,100064.09
2019-04-05T11:25:20.667Z,100066.63
2019-04-05T11:26:55.261Z,100066.14
2019-04-05T11:28:31.194Z,100069.02
2019-04-05T11:30:06.650Z,100075.15
2019-04-05T11:31:41.333Z,100075.28
2019-04-05T11:33:19.369Z,100073.69
2019-04-05T11:34:52.683Z,100071.50
2019-04-05T11:36:27.506Z,100073.36
2019-04-05T11:38:02.228Z,100074.12
2019-04-05T11:39:36.950Z,100078.11
2019-04-05T11:41:11.722Z,100080.64
2019-04-05T11:42:46.881Z,100087.45
2019-04-05T11:44:23.060Z,100082.94
2019-04-05T11:45:57.894Z,100081.59
2019-04-05T11:47:32.976Z,100077.98
2019-04-05T11:49:07.696Z,100068.41
2019-04-05T11:50:42.414Z,100073.65
2019-04-05T11:52:17.080Z,100073.89
2019-04-05T11:53:51.772Z,100076.82
2019-04-05T11:55:26.436Z,100080.30
2019-04-05T11:57:01.193Z,100078.25
2019-04-05T11:58:35.839Z,100082.64
2019-04-05T12:00:15.004Z,100082.34
2019-04-05T12:01:56.317Z,100078.64
2019-04-05T12:03:31.018Z,100082.38
2019-04-05T12:05:06.265Z,100087.52
2019-04-05T12:06:40.902Z,100083.67
2019-04-05T12:08:15.552Z,100086.20
2019-04-05T12:09:50.299Z,100085.67
2019-04-05T12:11:24.951Z,100089.66
2019-04-05T12:12:59.611Z,100089.61
2019-04-05T12:14:36.377Z,100087.36
2019-04-05T12:16:11.244Z,100092.36
2019-04-05T12:17:45.968Z,100090.62
2019-04-05T12:19:20.605Z,100094.22
2019-04-05T12:21:00.001Z,100090.91
2019-04-05T12:22:32.638Z,100089.25
2019-04-05T12:24:08.243Z,100083.39
2019-04-05T12:25:43.086Z,100089.61
2019-04-05T12:27:20.607Z,100085.75
2019-04-05T12:28:54.184Z,100087.52
2019-04-05T12:30:28.917Z,100082.63
2019-04-05T12:32:03.958Z,100079.38
2019-04-05T12:33:38.588Z,100088.59
2019-04-05T12:35:13.315Z,100086.55
2019-04-05T12:36:47.962Z,100090.83
2019-04-05T12:38:33.023Z,100088.76
2019-04-05T12:40:10.244Z,100085.01
2019-04-05T12:41:45.614Z,100084.11
2019-04-05T12:43:20.267Z,100080.07
2019-04-05T12:44:55.790Z,100084.06
2019-04-05T12:46:30.516Z,100071.30
2019-04-05T12:48:05.278Z,100081.98
2019-04-05T12:49:39.917Z,100081.45
2019-04-05T12:51:15.566Z,100081.06
2019-04-05T12:52:50.871Z,100082.92
2019-04-05T12:54:25.510Z,100087.63
2019-04-05T12:56:00.151Z,100087.67
2019-04-05T12:57:34.864Z,100082.20
2019-04-05T12:59:09.531Z,100081.45
2019-04-05T13:00:44.261Z,100081.56
2019-04-05T13:02:32.746Z,100082.43
2019-04-05T13:03:55.302Z,100083.75
2019-04-05T13:05:30.939Z,100076.92
2019-04-05T13:07:05.718Z,100082.36
2019-04-05T13:08:40.400Z,100081.19
2019-04-05T13:10:15.050Z,100081.63
2019-04-05T13:11:49.778Z,100074.44
2019-04-05T13:13:26.655Z,100074.41
2019-04-05T13:15:12.347Z,100076.97
2019-04-05T13:16:39.755Z,100081.51
2019-04-05T13:18:14.478Z,100077.78
2019-04-05T13:19:49.122Z,100084.08
2019-04-05T13:21:27.363Z,100078.80
2019-04-05T13:23:02.473Z,100080.11
2019-04-05T13:24:39.567Z,100083.89
2019-04-05T13:26:12.929Z,100074.95
2019-04-05T13:27:47.679Z,100073.88
2019-04-05T13:29:22.350Z,100065.58
2019-04-05T13:30:57.030Z,100065.62
2019-04-05T13:32:31.674Z,100062.18
2019-04-05T13:34:06.621Z,100056.84
2019-04-05T13:35:41.339Z,100055.70
2019-04-05T13:37:20.446Z,100060.59
2019-04-05T13:38:54.889Z,100049.58
2019-04-05T13:40:29.619Z,100059.73
2019-04-05T13:42:04.963Z,100061.99
2019-04-05T13:43:39.627Z,100058.86
2019-04-05T13:45:15.547Z,100060.34
2019-04-05T13:46:50.222Z,100060.34
2019-04-05T13:48:24.892Z,100059.59
2019-04-05T13:49:59.540Z,100058.70
2019-04-05T13:51:34.203Z,100056.12
2019-04-05T13:53:11.131Z,100061.65
2019-04-05T13:54:45.260Z,100069.20
2019-04-05T13:56:19.908Z,100067.39
2019-04-05T13:57:54.847Z,100064.22
2019-04-05T13:59:29.634Z,100056.97
2019-04-05T14:01:04.481Z,100056.97
2019-04-05T14:02:39.263Z,100057.92
2019-04-05T14:04:16.864Z,100057.50
2019-04-05T14:05:54.061Z,100055.91
2019-04-05T14:07:26.697Z,100055.91
2019-04-05T14:09:01.677Z,100055.22
2019-04-05T14:10:37.660Z,100053.05
2019-04-05T14:12:12.340Z,100044.88
2019-04-05T14:13:47.081Z,100049.05
2019-04-05T14:15:21.875Z,100044.58
2019-04-05T14:16:56.539Z,100045.91
2019-04-05T14:18:31.190Z,100045.70
2019-04-05T14:20:09.281Z,100047.79
2019-04-05T14:21:47.633Z,100058.39
2019-04-05T14:23:23.048Z,100044.94
2019-04-05T14:24:56.887Z,100051.22
2019-04-05T14:26:32.443Z,100043.09
2019-04-05T14:28:07.099Z,100050.93
2019-04-05T14:29:41.779Z,100050.93
2019-04-05T14:31:16.485Z,100048.36
2019-04-05T14:32:55.283Z,100050.90
2019-04-05T14:34:27.495Z,100050.90
2019-04-05T14:36:02.157Z,100048.86
2019-04-05T14:37:36.824Z,100052.17
2019-04-05T14:39:11.746Z,100050.39
2019-04-05T14:40:46.599Z,100049.70
2019-04-05T14:42:22.293Z,100056.41
2019-04-05T14:43:56.957Z,100052.68
2019-04-05T14:45:31.634Z,100049.38
2019-04-05T14:47:06.324Z,100048.86
2019-04-05T14:48:40.995Z,100050.06
2019-04-05T14:50:17.331Z,100054.97
2019-04-05T14:51:54.885Z,100053.63
2019-04-05T14:53:32.002Z,100055.32
2019-04-05T14:55:05.012Z,100053.34
2019-04-05T14:56:39.666Z,100060.32
2019-04-05T14:58:14.319Z,100060.05
2019-04-05T14:59:48.985Z,100058.07
2019-04-05T15:01:23.947Z,100057.90
2019-04-05T15:02:58.594Z,100040.81
2019-04-05T15:04:33.322Z,100040.81
2019-04-05T15:06:08.031Z,100051.09
2019-04-05T15:07:42.702Z,100056.55
2019-04-05T15:09:17.455Z,100052.97
2019-04-05T15:10:52.118Z,100058.82
2019-04-05T15:12:29.148Z,100060.11
2019-04-05T15:14:03.226Z,100060.11
2019-04-05T15:15:37.886Z,100054.07
2019-04-05T15:17:12.624Z,100051.72
2019-04-05T15:18:47.421Z,100063.19
2019-04-05T15:20:23.052Z,100062.06
2019-04-05T15:22:05.544Z,100062.75
2019-04-05T15:23:34.012Z,100056.25
2019-04-05T15:25:08.999Z,100057.65
2019-04-05T15:26:43.726Z,100054.45
2019-04-05T15:28:18.445Z,100053.64
2019-04-05T15:29:55.350Z,100054.78
2019-04-05T15:31:29.540Z,100052.31
2019-04-05T15:33:05.614Z,100058.38
2019-04-05T15:34:40.276Z,100061.72
2019-04-05T15:36:15.891Z,100057.63
2019-04-05T15:37:50.569Z,100067.84
2019-04-05T15:39:25.223Z,100073.42
2019-04-05T15:40:59.890Z,100068.14
2019-04-05T15:42:34.628Z,100068.50
2019-04-05T15:44:09.303Z,100066.63
2019-04-05T15:45:44.172Z,100070.31
2019-04-05T15:47:23.149Z,100070.53
2019-04-05T15:48:55.877Z,100072.13
2019-04-05T15:50:30.534Z,100061.53
2019-04-05T15:52:17.787Z,100065.84
2019-04-05T15:53:41.816Z,100068.24
2019-04-05T15:55:16.534Z,100068.40
2019-04-05T15:56:51.303Z,100070.14
2019-04-05T15:58:26.398Z,100069.90
2019-04-05T16:00:03.800Z,100064.50
2019-04-05T16:01:38.455Z,100063.39
2019-04-05T16:03:15.449Z,100067.97
2019-04-05T16:04:51.238Z,100073.11
2019-04-05T16:06:25.969Z,100071.82
2019-04-05T16:08:00.698Z,100070.53
2019-04-05T16:09:35.336Z,100069.94
2019-04-05T16:11:09.974Z,100071.46
2019-04-05T16:12:44.700Z,100070.58
2019-04-05T16:14:19.360Z,100082.10
2019-04-05T16:15:54.040Z,100072.70
2019-04-05T16:17:28.788Z,100072.25
2019-04-05T16:19:03.484Z,100073.77
2019-04-05T16:20:38.459Z,100074.34
2019-04-05T16:22:13.125Z,100074.30
2019-04-05T16:23:47.773Z,100080.95
2019-04-05T16:25:23.449Z,100073.63
2019-04-05T16:26:58.370Z,100083.12
2019-04-05T16:28:33.236Z,100078.86
2019-04-05T16:30:08.470Z,100078.59
2019-04-05T16:31:43.137Z,100077.95
2019-04-05T16:33:17.799Z,100086.53
2019-04-05T16:34:52.461Z,100083.01
2019-04-05T16:36:30.796Z,100085.20
2019-04-05T16:38:04.148Z,100085.36
2019-04-05T16:39:38.843Z,100085.23
2019-04-05T16:41:13.530Z,100083.08
2019-04-05T16:43:01.497Z,100080.09
2019-04-05T16:44:24.560Z,100081.30
2019-04-05T16:45:59.555Z,100085.89
2019-04-05T16:47:35.236Z,100091.11
2019-04-05T16:49:09.876Z,100089.36
2019-04-05T16:50:45.466Z,100090.61
2019-04-05T16:52:20.118Z,100088.70
2019-04-05T16:54:03.923Z,100089.69
2019-04-05T16:55:38.652Z,100086.23
2019-04-05T16:57:13.289Z,100091.98
2019-04-05T16:58:47.977Z,100086.70
2019-04-05T17:00:22.997Z,100090.91
2019-04-05T17:01:57.684Z,100092.42
2019-04-05T17:03:32.329Z,100088.43
2019-04-05T17:05:07.441Z,100090.49
2019-04-05T17:06:42.217Z,100091.64
2019-04-05T17:08:16.868Z,100090.49
2019-04-05T17:09:51.799Z,100084.23
2019-04-05T17:11:26.466Z,100088.18
2019-04-05T17:13:01.284Z,100083.34
2019-04-05T17:14:35.923Z,100092.95
2019-04-05T17:16:10.574Z,100087.07
2019-04-05T17:17:45.512Z,100083.58
2019-04-05T17:19:20.198Z,100092.72
2019-04-05T17:20:54.845Z,100090.26
2019-04-05T17:22:29.701Z,100093.25
2019-04-05T17:24:04.566Z,100083.81
2019-04-05T17:25:39.619Z,100089.78
2019-04-05T17:27:14.570Z,100080.92
2019-04-05T17:28:49.219Z,100096.44
2019-04-05T17:30:23.951Z,100089.99
2019-04-05T17:31:58.667Z,100087.46
2019-04-05T17:33:33.314Z,100085.63
2019-04-05T17:35:07.991Z,100086.32
2019-04-05T17:36:42.644Z,100091.18
2019-04-05T17:38:17.328Z,100090.61
2019-04-05T17:39:51.990Z,100095.59
2019-04-05T17:41:26.763Z,100090.62
2019-04-05T17:43:01.416Z,100088.06
2019-04-05T17:44:36.061Z,100088.66
2019-04-05T17:46:10.805Z,100095.73
2019-04-05T17:47:45.466Z,100096.47
2019-04-05T17:49:20.199Z,100096.34
2019-04-05T17:50:54.983Z,100095.05
2019-04-05T17:52:29.732Z,100096.64
2019-04-05T17:54:04.544Z,100103.26
2019-04-05T17:55:39.548Z,100098.89
2019-04-05T17:57:14.682Z,100104.91
2019-04-05T17:58:50.247Z,100105.54
2019-04-05T18:00:25.013Z,100105.72
2019-04-05T18:01:59.801Z,100110.73
2019-04-05T18:03:34.632Z,100107.21
2019-04-05T18:05:09.516Z,100111.53
2019-04-05T18:06:44.165Z,100115.55
2019-04-05T18:08:18.803Z,100113.36
2019-04-05T18:09:53.754Z,100114.22
2019-04-05T18:11:28.384Z,100115.82
2019-04-05T18:13:05.626Z,100112.27
2019-04-05T18:14:40.272Z,100112.23
2019-04-05T18:16:14.938Z,100115.08
2019-04-05T18:17:49.587Z,100111.39
2019-04-05T18:19:24.262Z,100117.18
2019-04-05T18:20:58.970Z,100114.02
2019-04-05T18:22:33.631Z,100120.19
2019-04-05T18:24:08.282Z,100120.61
2019-04-05T18:25:42.957Z,100122.70
2019-04-05T18:27:17.660Z,100121.73
2019-04-05T18:28:52.323Z,100118.17
2019-04-05T18:30:26.969Z,100126.52
2019-04-05T18:32:01.711Z,100128.59
2019-04-05T18:33:37.328Z,100130.00
2019-04-05T18:35:12.191Z,100144.27